Time;durP1;ratioP1;P1;durP2;ratioP2;P2;SDS_P1;SDS_P2;PMS_P1;PMS_P2;Temp;Humidity;BMP_temperature;BMP_pressure;BME280_temperature;BME280_humidity;BME280_pressure;Samples;Min_cycle;Max_cycle;Signal;HPM_P1;HPM_P2
2024/04/12 00:00:47;;;;;;;6.13;4.22;;;15.60;90.10;;;;;;5518364;26;20067;-77
2024/04/12 00:03:17;;;;;;;7.82;5.25;;;15.60;90.10;;;;;;5518296;26;20051;-77
2024/04/12 00:05:47;;;;;;;7.10;4.68;;;15.50;90.10;;;;;;5489081;26;19994;-78
2024/04/12 00:08:18;;;;;;;6.82;4.28;;;15.60;90.10;;;;;;5518069;26;19994;-77
2024/04/12 00:10:44;;;;;;;6.13;3.90;;;15.60;90.10;;;;;;5488882;26;20009;-78
2024/04/12 00:13:10;;;;;;;6.13;4.22;;;15.60;90.10;;;;;;5489426;26;19994;-78
2024/04/12 00:15:36;;;;;;;6.00;4.05;;;15.60;90.10;;;;;;5489561;26;19994;-78
2024/04/12 00:18:02;;;;;;;6.30;4.00;;;15.60;90.10;;;;;;5489234;26;20446;-77
2024/04/12 00:20:29;;;;;;;6.57;4.20;;;15.60;90.10;;;;;;5488920;26;20002;-78
2024/04/12 00:22:56;;;;;;;6.25;4.38;;;15.60;90.10;;;;;;5486538;26;20075;-78
2024/04/12 00:25:24;;;;;;;6.45;4.38;;;15.50;90.10;;;;;;5517758;26;20451;-78
2024/04/12 00:27:50;;;;;;;6.45;4.20;;;15.50;90.10;;;;;;5489163;26;20060;-78
2024/04/12 00:30:37;;;;;;;6.53;4.10;;;15.60;90.10;;;;;;5488362;26;19994;-77
2024/04/12 00:33:09;;;;;;;6.72;4.68;;;15.60;90.40;;;;;;5518045;26;20025;-78
2024/04/12 00:35:38;;;;;;;;;;;15.60;90.10;;;;;;5517241;26;20043;-77
2024/04/12 00:38:09;;;;;;;7.20;5.10;;;15.60;90.10;;;;;;5487170;26;19923;-76
2024/04/12 00:40:45;;;;;;;7.00;4.70;;;15.60;90.10;;;;;;5517377;26;20005;-78
2024/04/12 00:43:16;;;;;;;6.75;4.28;;;15.60;90.20;;;;;;5518013;26;20009;-78
2024/04/12 00:45:45;;;;;;;7.45;4.60;;;15.60;90.20;;;;;;5488902;26;20005;-78
2024/04/12 00:48:14;;;;;;;6.82;4.30;;;15.60;90.20;;;;;;5517616;26;20001;-77
2024/04/12 00:50:42;;;;;;;6.38;4.20;;;15.60;90.20;;;;;;5487870;26;20005;-77
2024/04/12 00:53:22;;;;;;;6.30;4.05;;;15.60;90.20;;;;;;5488310;26;20005;-77
2024/04/12 00:55:59;;;;;;;6.60;4.30;;;15.60;90.20;;;;;;5486441;26;19994;-77
2024/04/12 00:58:30;;;;;;;5.75;3.80;;;15.60;90.20;;;;;;5488505;26;19994;-76
2024/04/12 01:01:04;;;;;;;6.97;4.70;;;15.60;90.20;;;;;;5487959;26;20009;-76
2024/04/12 01:03:29;;;;;;;6.68;3.83;;;15.60;90.20;;;;;;5488126;26;20223;-78
2024/04/12 01:05:55;;;;;;;6.22;4.18;;;15.60;90.20;;;;;;5487461;26;20004;-77
2024/04/12 01:08:20;;;;;;;6.07;3.90;;;15.40;90.10;;;;;;5487575;26;20073;-78
2024/04/12 01:10:46;;;;;;;6.10;4.10;;;15.50;90.10;;;;;;5515989;26;19999;-77
2024/04/12 01:13:11;;;;;;;6.15;4.22;;;15.50;90.20;;;;;;5487862;26;20067;-78
2024/04/12 01:15:37;;;;;;;6.78;4.55;;;15.60;90.20;;;;;;5486970;26;19998;-78
2024/04/12 01:18:04;;;;;;;6.13;3.83;;;15.60;90.20;;;;;;5487217;26;20339;-79
2024/04/12 01:20:32;;;;;;;6.60;4.25;;;15.50;90.10;;;;;;5487258;26;20338;-77
2024/04/12 01:23:03;;;;;;;6.30;4.03;;;15.60;90.20;;;;;;5487274;26;19995;-77
2024/04/12 01:25:29;;;;;;;6.35;4.20;;;15.50;90.10;;;;;;5487882;26;20343;-77
2024/04/12 01:27:55;;;;;;;6.43;4.10;;;15.60;90.20;;;;;;5487732;26;20050;-77
2024/04/12 01:30:22;;;;;;;6.35;3.92;;;15.60;90.20;;;;;;5516407;26;20360;-77
2024/04/12 01:32:50;;;;;;;6.70;4.35;;;15.60;90.20;;;;;;5516928;26;19990;-78
2024/04/12 01:35:17;;;;;;;6.53;4.22;;;15.60;90.20;;;;;;5516733;26;20852;-78
2024/04/12 01:37:43;;;;;;;6.78;4.53;;;15.60;90.20;;;;;;5487920;26;19994;-78
2024/04/12 01:40:12;;;;;;;7.25;4.40;;;15.40;90.20;;;;;;5487239;26;19998;-77
2024/04/12 01:42:42;;;;;;;6.22;4.30;;;15.60;90.20;;;;;;5487429;26;20000;-77
2024/04/12 01:45:14;;;;;;;7.30;4.82;;;15.60;90.20;;;;;;5516326;26;20409;-78
2024/04/12 01:47:45;;;;;;;6.75;4.55;;;15.60;90.20;;;;;;5519639;26;19990;-77
2024/04/12 01:50:21;;;;;;;6.60;4.43;;;15.50;90.20;;;;;;5491390;26;20005;-78
2024/04/12 01:52:50;;;;;;;6.38;4.07;;;15.60;90.20;;;;;;5520377;26;19998;-78
2024/04/12 01:55:20;;;;;;;6.65;4.13;;;15.60;90.20;;;;;;5520003;26;19998;-78
2024/04/12 01:57:51;;;;;;;6.35;4.13;;;15.50;90.20;;;;;;5491370;26;20339;-78
2024/04/12 02:00:17;;;;;;;6.55;4.45;;;15.60;90.20;;;;;;5490856;26;19998;-78
2024/04/12 02:02:43;;;;;;;6.05;4.05;;;15.50;90.20;;;;;;5491252;26;20456;-77
2024/04/12 02:05:09;;;;;;;6.82;4.53;;;15.50;90.20;;;;;;5490882;26;20334;-79
2024/04/12 02:07:39;;;;;;;6.47;4.18;;;15.50;90.20;;;;;;5491007;26;20378;-76
2024/04/12 02:10:11;;;;;;;6.72;4.50;;;15.50;90.20;;;;;;5490803;26;20010;-78
2024/04/12 02:12:40;;;;;;;;;;;15.60;90.20;;;;;;5491720;26;20040;-77
2024/04/12 02:18:04;;;;;;;6.43;4.07;;;15.50;90.20;;;;;;5482057;26;19994;-79
2024/04/12 02:20:36;;;;;;;6.47;4.13;;;15.50;90.20;;;;;;5490471;26;19994;-80
2024/04/12 02:23:06;;;;;;;6.55;4.32;;;15.60;90.30;;;;;;5519503;26;20005;-78
2024/04/12 02:25:35;;;;;;;6.32;4.47;;;15.60;90.20;;;;;;5490908;26;20002;-77
2024/04/12 02:28:07;;;;;;;6.43;4.18;;;15.50;90.20;;;;;;5519722;26;20039;-78
2024/04/12 02:30:41;;;;;;;6.22;4.18;;;15.60;90.30;;;;;;5490472;26;20009;-78
2024/04/12 02:33:08;;;;;;;6.85;4.32;;;15.50;90.20;;;;;;5491213;26;20026;-79
2024/04/12 02:35:35;;;;;;;7.13;4.38;;;15.50;90.20;;;;;;5490850;26;19998;-78
2024/04/12 02:38:00;;;;;;;7.63;4.95;;;15.50;90.20;;;;;;5488789;26;20005;-78
2024/04/12 02:40:26;;;;;;;6.70;4.25;;;15.50;90.10;;;;;;5518856;26;19994;-78
2024/04/12 02:42:51;;;;;;;6.90;4.20;;;15.50;90.20;;;;;;5519526;26;20009;-78
2024/04/12 02:45:17;;;;;;;6.05;3.85;;;15.60;90.30;;;;;;5490450;26;19994;-78
2024/04/12 02:47:42;;;;;;;6.22;4.10;;;15.50;90.20;;;;;;5488461;26;20380;-77
2024/04/12 02:50:15;;;;;;;6.65;4.32;;;15.50;90.20;;;;;;5490037;26;20385;-77
2024/04/12 02:52:40;;;;;;;6.78;4.03;;;15.60;90.30;;;;;;5490370;26;19998;-77
2024/04/12 02:55:12;;;;;;;6.63;4.72;;;15.40;90.20;;;;;;5490263;26;20411;-77
2024/04/12 02:57:41;;;;;;;7.35;4.70;;;15.50;90.20;;;;;;5489527;26;20006;-77
2024/04/12 03:00:21;;;;;;;6.50;4.15;;;15.50;90.20;;;;;;5519181;26;20530;-77
2024/04/12 03:02:51;;;;;;;6.20;4.07;;;15.50;90.40;;;;;;5519446;26;20681;-77
2024/04/12 03:05:18;;;;;;;6.75;4.20;;;15.50;90.20;;;;;;5519119;26;19991;-76
2024/04/12 03:07:47;;;;;;;6.43;4.35;;;15.60;90.20;;;;;;5518866;26;20030;-77
2024/04/12 03:10:18;;;;;;;6.50;4.22;;;15.50;90.20;;;;;;5490232;26;19998;-77
2024/04/12 03:12:53;;;;;;;5.97;3.75;;;15.50;90.20;;;;;;5519312;26;19998;-77
2024/04/12 03:15:20;;;;;;;6.30;4.07;;;15.50;90.30;;;;;;5519061;26;20338;-77
2024/04/12 03:17:49;;;;;;;6.63;4.55;;;15.50;90.30;;;;;;5489949;26;20070;-77
2024/04/12 03:20:15;;;;;;;6.50;4.03;;;15.50;90.30;;;;;;5489930;26;19998;-77
2024/04/12 03:22:47;;;;;;;6.10;4.30;;;15.50;90.30;;;;;;5488921;26;20022;-79
2024/04/12 03:25:16;;;;;;;6.35;4.15;;;15.50;90.50;;;;;;5518969;26;20067;-76
2024/04/12 03:27:43;;;;;;;6.75;4.90;;;15.50;90.30;;;;;;5518890;26;19998;-78
2024/04/12 03:30:13;;;;;;;6.40;4.20;;;15.50;90.20;;;;;;5518541;26;20005;-78
2024/04/12 03:32:46;;;;;;;5.90;3.90;;;15.50;90.20;;;;;;5489346;26;20017;-77
2024/04/12 03:35:16;;;;;;;6.75;4.30;;;15.40;90.20;;;;;;5518855;26;19994;-77
2024/04/12 03:38:24;;;;;;;5.95;3.80;;;15.50;90.20;;;;;;5489780;26;20515;-77
2024/04/12 03:40:29;;;;;;;6.57;3.67;;;15.50;90.20;;;;;;5489180;26;19994;-77
2024/04/12 03:43:03;;;;;;;6.30;3.88;;;15.50;90.30;;;;;;5489632;26;20017;-78
2024/04/12 03:45:35;;;;;;;6.75;4.38;;;15.50;90.30;;;;;;5518642;26;20837;-78
2024/04/12 03:48:13;;;;;;;5.80;3.75;;;15.50;90.30;;;;;;5518639;26;19994;-78
2024/04/12 03:50:41;;;;;;;5.75;3.78;;;15.60;90.30;;;;;;5518337;26;20069;-77
2024/04/12 03:53:16;;;;;;;6.10;3.72;;;15.50;90.30;;;;;;5489504;26;19991;-78
2024/04/12 03:55:44;;;;;;;6.30;4.40;;;15.50;90.30;;;;;;5518501;26;20052;-77
2024/04/12 03:58:17;;;;;;;6.75;4.47;;;15.60;90.30;;;;;;5518523;26;20396;-77
2024/04/12 04:00:46;;;;;;;6.80;4.53;;;15.50;90.20;;;;;;5517617;26;20004;-77
2024/04/12 04:03:30;;;;;;;6.43;3.95;;;15.50;90.20;;;;;;5489346;26;20439;-76
2024/04/12 04:06:11;;;;;;;7.40;5.15;;;15.50;90.20;;;;;;5489243;26;20010;-78
2024/04/12 04:08:48;;;;;;;6.22;3.78;;;15.50;90.20;;;;;;5489466;26;20062;-76
2024/04/12 04:11:17;;;;;;;8.38;5.55;;;15.50;90.30;;;;;;5516597;26;20006;-78
2024/04/12 04:13:46;;;;;;;6.25;4.20;;;15.50;90.20;;;;;;5489080;26;20002;-78
2024/04/12 04:16:16;;;;;;;7.85;5.82;;;15.40;90.20;;;;;;5517932;26;20005;-77
2024/04/12 04:18:46;;;;;;;9.02;6.40;;;15.50;90.20;;;;;;5488838;26;20553;-77
2024/04/12 04:21:13;;;;;;;7.30;5.25;;;15.50;90.20;;;;;;5488854;26;19997;-78
2024/04/12 04:23:42;;;;;;;8.35;5.97;;;15.50;90.20;;;;;;5517285;26;19994;-78
2024/04/12 04:26:08;;;;;;;8.60;6.28;;;15.60;90.20;;;;;;5517511;26;20020;-76
2024/04/12 04:28:35;;;;;;;8.98;6.38;;;15.50;90.20;;;;;;5488058;26;19998;-77
2024/04/12 04:31:05;;;;;;;6.93;4.70;;;15.40;90.20;;;;;;5487906;26;20043;-78
2024/04/12 04:33:35;;;;;;;8.48;6.18;;;15.50;90.20;;;;;;5517194;26;19998;-80
2024/04/12 04:36:08;;;;;;;7.50;5.13;;;15.50;90.20;;;;;;5517269;26;20005;-78
2024/04/12 04:38:36;;;;;;;7.70;5.32;;;15.50;90.20;;;;;;5517613;26;20010;-79
2024/04/12 04:41:06;;;;;;;6.32;4.10;;;15.50;90.20;;;;;;5488078;26;20100;-78
2024/04/12 04:43:35;;;;;;;8.13;6.00;;;15.50;90.20;;;;;;5488441;26;20072;-78
2024/04/12 04:46:26;;;;;;;8.85;6.20;;;15.50;90.20;;;;;;5517715;26;20002;-78
2024/04/12 04:48:49;;;;;;;7.03;4.63;;;15.50;90.20;;;;;;5488694;26;19998;-77
2024/04/12 04:51:16;;;;;;;8.45;5.88;;;15.50;90.20;;;;;;5517202;26;20374;-78
2024/04/12 04:53:43;;;;;;;7.55;5.25;;;15.50;90.20;;;;;;5517168;26;20456;-78
2024/04/12 04:56:09;;;;;;;7.78;5.28;;;15.50;90.20;;;;;;5488498;26;20067;-79
2024/04/12 04:58:34;;;;;;;6.85;4.70;;;15.50;90.30;;;;;;5488328;26;20338;-79
2024/04/12 05:01:01;;;;;;;7.18;5.00;;;15.40;90.30;;;;;;5517138;26;20078;-78
2024/04/12 05:03:27;;;;;;;6.88;4.80;;;15.50;90.30;;;;;;5517345;26;19999;-78
2024/04/12 05:05:53;;;;;;;9.00;5.57;;;15.40;90.30;;;;;;5517365;26;20438;-78
2024/04/12 05:08:20;;;;;;;7.25;4.95;;;15.50;90.30;;;;;;5488147;26;20024;-79
2024/04/12 05:10:46;;;;;;;7.85;5.43;;;15.50;90.30;;;;;;5486803;26;20000;-78
2024/04/12 05:13:12;;;;;;;7.40;4.95;;;15.50;90.30;;;;;;5486421;26;19994;-78
2024/04/12 05:18:12;;;;;;;7.28;4.78;;;15.50;90.30;;;;;;5481201;26;20002;-78
2024/04/12 05:20:42;;;;;;;6.80;4.35;;;15.50;90.20;;;;;;5485451;26;20342;-80
2024/04/12 05:23:11;;;;;;;6.95;4.65;;;15.50;90.30;;;;;;5488445;26;20408;-79
2024/04/12 05:25:40;;;;;;;7.50;5.00;;;15.50;90.30;;;;;;5487475;26;20010;-79
2024/04/12 05:28:10;;;;;;;6.45;4.15;;;15.50;90.50;;;;;;5486345;26;20002;-77
2024/04/12 05:30:37;;;;;;;7.32;4.32;;;15.50;90.30;;;;;;5487954;26;20038;-78
2024/04/12 05:33:04;;;;;;;7.45;4.45;;;15.40;90.20;;;;;;5486209;26;20067;-78
2024/04/12 05:35:30;;;;;;;7.28;4.38;;;15.50;90.30;;;;;;5486597;26;20043;-79
2024/04/12 05:37:58;;;;;;;7.82;4.35;;;15.50;90.30;;;;;;5487629;26;19994;-77
2024/04/12 05:40:25;;;;;;;6.95;4.22;;;15.50;90.30;;;;;;5487806;26;19995;-78
2024/04/12 05:42:51;;;;;;;6.25;4.07;;;15.50;90.30;;;;;;5488001;26;20459;-78
2024/04/12 05:45:19;;;;;;;6.22;3.95;;;15.50;90.40;;;;;;5488786;26;20004;-78
2024/04/12 05:47:54;;;;;;;6.70;4.25;;;15.40;90.30;;;;;;5486841;26;19998;-78
2024/04/12 05:50:20;;;;;;;6.35;4.22;;;15.50;90.40;;;;;;5485823;26;20002;-78
2024/04/12 05:52:46;;;;;;;6.88;4.30;;;15.50;90.40;;;;;;5488134;26;20425;-78
2024/04/12 05:55:14;;;;;;;7.00;4.38;;;15.50;90.30;;;;;;5489069;26;20026;-78
2024/04/12 05:57:40;;;;;;;7.20;4.72;;;15.50;90.40;;;;;;5488258;26;20773;-78
2024/04/12 06:00:09;;;;;;;6.70;4.38;;;15.50;90.40;;;;;;5488750;26;19994;-79
2024/04/12 06:02:43;;;;;;;7.97;4.50;;;15.50;90.30;;;;;;5486344;26;19995;-77
2024/04/12 06:05:09;;;;;;;6.47;4.05;;;15.50;90.40;;;;;;5487368;26;19998;-79
2024/04/12 06:07:37;;;;;;;6.68;4.38;;;15.40;90.30;;;;;;5486882;26;20053;-77
2024/04/12 06:10:04;;;;;;;6.95;4.25;;;15.50;90.30;;;;;;5486812;26;20036;-78
2024/04/12 06:12:34;;;;;;;8.30;5.07;;;15.50;90.30;;;;;;5487743;26;20002;-78
2024/04/12 06:15:03;;;;;;;6.82;4.50;;;15.50;90.30;;;;;;5487513;26;20001;-78
2024/04/12 06:17:29;;;;;;;6.90;4.10;;;15.50;90.30;;;;;;5487835;26;20002;-78
2024/04/12 06:19:59;;;;;;;5.75;3.95;;;15.50;90.30;;;;;;5487676;26;19994;-77
2024/04/12 06:22:31;;;;;;;6.15;4.18;;;15.40;90.30;;;;;;5487504;26;19998;-77
2024/04/12 06:25:01;;;;;;;5.85;3.85;;;15.50;90.30;;;;;;5489068;26;19990;-77
2024/04/12 06:27:30;;;;;;;6.72;4.05;;;15.50;90.40;;;;;;5488548;26;20002;-77
2024/04/12 06:30:00;;;;;;;5.95;3.80;;;15.50;90.40;;;;;;5490580;26;19998;-77
2024/04/12 06:32:28;;;;;;;7.18;4.43;;;15.50;90.40;;;;;;5488804;26;20337;-77
2024/04/12 06:34:54;;;;;;;6.97;4.28;;;15.50;90.20;;;;;;5490373;26;19990;-78
2024/04/12 06:37:23;;;;;;;6.93;4.05;;;15.50;90.20;;;;;;5489098;26;19994;-78
2024/04/12 06:39:48;;;;;;;8.20;4.57;;;15.50;90.20;;;;;;5490645;26;20545;-77
2024/04/12 06:42:15;;;;;;;6.53;4.13;;;15.50;90.20;;;;;;5490635;26;19994;-78
2024/04/12 06:44:48;;;;;;;7.05;4.50;;;15.50;90.20;;;;;;5488964;26;19994;-77
2024/04/12 06:47:18;;;;;;;6.00;3.88;;;15.50;90.30;;;;;;5490759;26;20002;-77
2024/04/12 06:49:44;;;;;;;6.63;4.13;;;15.50;90.20;;;;;;5488589;26;20002;-78
2024/04/12 06:52:11;;;;;;;6.75;4.32;;;15.60;90.30;;;;;;5490265;26;20339;-77
2024/04/12 06:54:41;;;;;;;7.35;4.35;;;15.50;90.30;;;;;;5488479;26;20002;-78
2024/04/12 06:57:22;;;;;;;6.40;4.13;;;15.60;90.30;;;;;;5488517;26;20026;-77
2024/04/12 06:59:54;;;;;;;6.53;4.18;;;15.50;90.20;;;;;;5490295;26;20006;-78
2024/04/12 07:02:24;;;;;;;7.85;4.65;;;15.50;90.30;;;;;;5488681;26;20006;-78
2024/04/12 07:04:52;;;;;;;6.80;4.30;;;15.50;90.30;;;;;;5490663;26;19994;-77
2024/04/12 07:07:24;;;;;;;6.88;4.25;;;15.50;90.20;;;;;;5488634;26;19998;-78
2024/04/12 07:09:50;;;;;;;6.10;3.70;;;15.50;90.30;;;;;;5488147;26;20364;-77
2024/04/12 07:12:19;;;;;;;7.15;4.75;;;15.50;90.30;;;;;;5488426;26;19994;-78
2024/04/12 07:14:46;;;;;;;6.97;4.32;;;15.50;90.30;;;;;;5488374;26;19998;-78
2024/04/12 07:17:21;;;;;;;6.30;4.05;;;15.50;90.30;;;;;;5488560;26;20392;-77
2024/04/12 07:19:51;;;;;;;7.07;4.30;;;15.50;90.30;;;;;;5487897;26;20005;-77
2024/04/12 07:22:20;;;;;;;6.65;3.85;;;15.50;90.30;;;;;;5487660;26;19994;-77
2024/04/12 07:24:50;;;;;;;6.03;3.67;;;15.50;90.30;;;;;;5489797;26;20002;-77
2024/04/12 07:27:17;;;;;;;6.70;4.18;;;15.50;90.30;;;;;;5487762;26;19994;-78
2024/04/12 07:29:46;;;;;;;6.25;4.13;;;15.50;90.30;;;;;;5489807;26;20066;-78
2024/04/12 07:32:13;;;;;;;6.40;4.03;;;15.50;90.30;;;;;;5490114;26;20058;-78
2024/04/12 07:34:48;;;;;;;6.03;3.67;;;15.50;90.30;;;;;;5489969;26;20755;-77
2024/04/12 07:37:26;;;;;;;6.43;4.15;;;15.50;90.30;;;;;;5488202;26;20066;-77
2024/04/12 07:40:15;;;;;;;5.70;3.70;;;15.50;90.30;;;;;;5487773;26;20021;-78
2024/04/12 07:42:39;;;;;;;6.35;3.75;;;15.40;90.30;;;;;;5490054;26;19998;-78
2024/04/12 07:45:06;;;;;;;6.85;4.10;;;15.60;90.40;;;;;;5487550;26;20002;-76
2024/04/12 07:47:35;;;;;;;6.22;3.70;;;15.50;90.40;;;;;;5489752;26;19994;-78
2024/04/12 07:50:08;;;;;;;6.30;4.10;;;15.40;90.30;;;;;;5489223;26;19998;-77
2024/04/12 07:52:34;;;;;;;6.10;3.78;;;15.50;90.40;;;;;;5489599;26;19994;-77
2024/04/12 07:55:01;;;;;;;5.95;3.65;;;15.50;90.40;;;;;;5487756;26;19998;-78
2024/04/12 07:57:29;;;;;;;6.80;4.28;;;15.50;90.40;;;;;;5489599;26;20002;-78
2024/04/12 07:59:55;;;;;;;6.40;4.03;;;15.50;90.40;;;;;;5489553;26;20002;-77
2024/04/12 08:02:21;;;;;;;6.43;3.80;;;15.50;90.40;;;;;;5489896;26;19998;-78
2024/04/12 08:04:46;;;;;;;5.72;3.45;;;15.60;90.50;;;;;;5487720;26;20030;-77
2024/04/12 08:07:17;;;;;;;5.30;3.35;;;15.50;90.40;;;;;;5489362;26;20006;-78
2024/04/12 08:10:09;;;;;;;6.18;3.90;;;15.50;90.50;;;;;;5487192;26;20026;-78
2024/04/12 08:12:33;;;;;;;5.95;3.72;;;15.50;90.50;;;;;;5489334;26;20046;-78
2024/04/12 08:15:06;;;;;;;6.68;4.25;;;15.50;90.50;;;;;;5488932;26;20066;-77
2024/04/12 08:17:39;;;;;;;6.10;3.60;;;15.50;90.70;;;;;;5489140;26;20009;-77
2024/04/12 08:20:16;;;;;;;7.88;4.60;;;15.50;90.50;;;;;;5487176;26;20012;-78
2024/04/12 08:22:43;;;;;;;6.72;4.30;;;15.50;90.50;;;;;;5487788;26;20490;-78
2024/04/12 08:25:08;;;;;;;6.60;3.97;;;15.50;90.50;;;;;;5489061;26;19994;-78
2024/04/12 08:27:35;;;;;;;7.32;4.53;;;15.50;90.50;;;;;;5488880;26;20366;-78
2024/04/12 08:30:00;;;;;;;6.65;4.32;;;15.50;90.50;;;;;;5488246;26;19986;-77
2024/04/12 08:32:33;;;;;;;6.97;4.18;;;15.50;90.50;;;;;;5487266;26;20879;-78
2024/04/12 08:35:06;;;;;;;6.40;4.00;;;15.50;90.50;;;;;;5486822;26;19998;-78
2024/04/12 08:37:36;;;;;;;6.90;4.25;;;15.50;90.50;;;;;;5487069;26;20654;-77
2024/04/12 08:40:08;;;;;;;6.68;4.25;;;15.50;90.50;;;;;;5488415;26;20004;-77
2024/04/12 08:42:34;;;;;;;6.20;3.90;;;15.50;90.70;;;;;;5486790;26;20009;-77
2024/04/12 08:45:12;;;;;;;5.50;3.60;;;15.50;90.50;;;;;;5488606;26;20000;-77
2024/04/12 08:47:54;;;;;;;6.60;3.78;;;15.50;90.50;;;;;;5486992;26;20006;-76
2024/04/12 08:50:24;;;;;;;6.50;4.13;;;15.50;90.50;;;;;;5488478;26;19998;-78
2024/04/12 08:52:54;;;;;;;6.18;4.13;;;15.60;90.50;;;;;;5488484;26;20450;-78
2024/04/12 08:55:23;;;;;;;6.70;4.20;;;15.60;90.50;;;;;;5488528;26;20005;-78
2024/04/12 08:57:57;;;;;;;6.55;4.20;;;15.50;90.50;;;;;;5491888;26;19998;-77
2024/04/12 09:00:28;;;;;;;6.35;4.03;;;15.50;90.50;;;;;;5491778;26;20377;-77
2024/04/12 09:05:42;;;;;;;6.88;4.57;;;15.60;90.50;;;;;;5491462;26;20005;-78
2024/04/12 09:08:09;;;;;;;6.70;4.20;;;15.60;90.50;;;;;;5491595;26;20338;-78
2024/04/12 09:10:35;;;;;;;6.45;4.25;;;15.60;90.50;;;;;;5489825;26;20485;-78
2024/04/12 09:13:08;;;;;;;5.90;3.92;;;15.60;90.50;;;;;;5492278;26;19994;-78
2024/04/12 09:15:45;;;;;;;6.78;4.45;;;15.60;90.50;;;;;;5491961;26;19998;-78
2024/04/12 09:18:15;;;;;;;6.55;3.67;;;15.60;90.50;;;;;;5490062;26;20046;-77
2024/04/12 09:20:52;;;;;;;6.65;4.10;;;15.50;90.40;;;;;;5491873;26;19994;-78
2024/04/12 09:23:19;;;;;;;6.45;4.07;;;15.60;90.40;;;;;;5489802;26;20066;-76
2024/04/12 09:25:54;;;;;;;6.50;4.20;;;15.60;90.40;;;;;;5489724;26;20070;-78
2024/04/12 09:28:22;;;;;;;6.78;4.38;;;15.60;90.40;;;;;;5489797;26;20006;-78
2024/04/12 09:33:33;;;;;;;7.13;4.43;;;15.70;90.40;;;;;;5491451;26;20407;-78
2024/04/12 09:36:14;;;;;;;6.50;4.00;;;15.60;90.40;;;;;;5491003;26;20002;-76
2024/04/12 09:38:40;;;;;;;6.60;4.13;;;15.60;90.40;;;;;;5489464;26;19998;-78
2024/04/12 09:41:28;;;;;;;6.60;4.30;;;15.60;90.40;;;;;;5490837;26;20009;-77
2024/04/12 09:44:01;;;;;;;7.25;4.40;;;15.70;90.40;;;;;;5489401;26;20447;-77
2024/04/12 09:46:46;;;;;;;6.57;4.25;;;15.60;90.40;;;;;;5489774;26;20004;-78
2024/04/12 10:38:54;;;;;;;6.03;3.83;;;15.70;90.30;;;;;;5490925;26;20024;-78
2024/04/12 10:41:22;;;;;;;6.85;4.10;;;15.70;90.30;;;;;;5488585;26;19994;-78
2024/04/12 10:43:47;;;;;;;6.65;4.22;;;15.70;90.30;;;;;;5488738;26;19998;-77
2024/04/12 10:46:13;;;;;;;6.93;4.20;;;15.70;90.30;;;;;;5488753;26;20035;-77
2024/04/12 10:48:42;;;;;;;6.57;4.35;;;15.60;90.30;;;;;;5488752;26;20453;-78
2024/04/12 10:51:09;;;;;;;7.65;4.82;;;15.70;90.30;;;;;;5489847;26;19994;-78
2024/04/12 10:53:38;;;;;;;6.60;4.30;;;15.70;90.30;;;;;;5488672;26;20498;-78
2024/04/12 10:56:07;;;;;;;7.38;4.70;;;15.70;90.30;;;;;;5454877;26;20009;-78
2024/04/12 10:58:33;;;;;;;6.72;4.25;;;15.70;90.30;;;;;;5482437;26;19999;-78
2024/04/12 11:01:04;;;;;;;6.50;4.30;;;15.70;90.40;;;;;;5453806;26;19990;-78
2024/04/12 11:03:30;;;;;;;7.00;4.30;;;15.70;90.40;;;;;;5454244;26;20005;-78
2024/04/12 11:06:10;;;;;;;7.20;4.38;;;15.60;90.40;;;;;;5453869;26;19998;-76
2024/04/12 11:08:36;;;;;;;8.25;4.80;;;15.60;90.30;;;;;;5482319;26;20005;-77
2024/04/12 11:11:15;;;;;;;7.10;4.25;;;15.60;90.30;;;;;;5451489;26;20063;-78
2024/04/12 11:13:45;;;;;;;7.72;5.05;;;15.70;90.40;;;;;;5453545;26;19994;-78
2024/04/12 11:32:37;;;;;;;7.50;4.50;;;15.70;90.10;;;;;;5453599;26;20067;-78
2024/04/12 11:35:05;;;;;;;6.68;4.53;;;15.80;90.20;;;;;;5453611;26;19997;-78
2024/04/12 11:37:30;;;;;;;6.57;4.15;;;15.70;90.10;;;;;;5491556;26;20030;-78
2024/04/12 11:39:56;;;;;;;6.47;4.35;;;15.70;90.10;;;;;;5489446;26;20009;-77
2024/04/12 11:42:23;;;;;;;6.72;4.65;;;15.80;90.10;;;;;;5519027;26;20002;-77
2024/04/12 11:44:53;;;;;;;6.88;4.35;;;15.80;90.10;;;;;;5489752;26;19994;-77
2024/04/12 11:47:19;;;;;;;7.15;4.45;;;15.80;90.10;;;;;;5490046;26;20067;-78
2024/04/12 11:49:49;;;;;;;7.60;4.78;;;15.70;90.10;;;;;;5489194;26;20363;-78
2024/04/12 11:52:16;;;;;;;7.00;4.70;;;15.70;90.10;;;;;;5489622;26;20001;-78
2024/04/12 11:54:52;;;;;;;7.20;4.70;;;15.80;90.10;;;;;;5489746;26;20037;-76
2024/04/12 11:57:22;;;;;;;7.40;4.90;;;15.80;90.10;;;;;;5489659;26;19998;-78
2024/04/12 11:59:54;;;;;;;6.95;4.63;;;15.80;90.10;;;;;;5489615;26;20062;-78
2024/04/12 12:02:22;;;;;;;6.63;4.72;;;15.70;90.10;;;;;;5487800;26;20396;-77
2024/04/12 12:04:49;;;;;;;7.50;4.85;;;15.80;90.10;;;;;;5518193;26;20005;-77
2024/04/12 12:07:16;;;;;;;6.65;4.40;;;15.80;90.20;;;;;;5489667;26;20006;-77
2024/04/12 12:09:42;;;;;;;7.47;5.25;;;15.80;90.20;;;;;;5518181;26;20009;-78
2024/04/12 12:12:11;;;;;;;7.30;4.85;;;15.80;90.20;;;;;;5489775;26;20062;-77
2024/04/12 12:14:38;;;;;;;6.75;4.60;;;15.80;90.20;;;;;;5488913;26;19990;-78
2024/04/12 12:17:07;;;;;;;7.35;4.93;;;15.80;90.20;;;;;;5489159;26;19998;-78
2024/04/12 12:19:33;;;;;;;6.57;4.40;;;15.80;90.30;;;;;;5517785;26;20002;-76
2024/04/12 12:22:02;;;;;;;7.28;4.82;;;15.80;90.30;;;;;;5488574;26;19994;-78
2024/04/12 12:24:37;;;;;;;7.15;5.18;;;15.80;90.20;;;;;;5488859;26;19994;-77
2024/04/12 12:27:07;;;;;;;6.85;4.75;;;15.80;90.20;;;;;;5518052;26;19998;-77
2024/04/12 12:29:35;;;;;;;7.32;4.80;;;15.80;90.10;;;;;;5488626;26;20332;-78
2024/04/12 12:32:01;;;;;;;7.30;4.93;;;15.80;90.10;;;;;;5516686;26;19998;-76
2024/04/12 12:34:27;;;;;;;6.93;4.68;;;15.90;90.00;;;;;;5518178;26;20345;-78
2024/04/12 12:36:53;;;;;;;7.63;5.10;;;15.90;90.00;;;;;;5489253;26;20009;-77
2024/04/12 12:39:19;;;;;;;7.22;5.03;;;16.00;90.00;;;;;;5489088;26;19998;-78
2024/04/12 12:41:45;;;;;;;6.75;4.82;;;15.90;90.00;;;;;;5486711;26;20401;-78
2024/04/12 12:44:17;;;;;;;7.20;5.00;;;15.90;89.90;;;;;;5488743;26;20075;-77
2024/04/12 12:46:43;;;;;;;8.60;5.35;;;15.90;90.00;;;;;;5488890;26;20010;-78
2024/04/12 12:49:09;;;;;;;6.90;4.65;;;15.90;90.00;;;;;;5517267;26;19998;-78
2024/04/12 12:51:38;;;;;;;7.03;4.68;;;15.80;90.00;;;;;;5517297;26;19998;-75
2024/04/12 12:54:06;;;;;;;6.43;4.40;;;15.70;90.00;;;;;;5517758;26;20074;-76
2024/04/12 12:56:31;;;;;;;6.45;4.70;;;15.90;90.10;;;;;;5517807;26;20018;-78
2024/04/12 12:58:59;;;;;;;6.90;4.68;;;15.80;90.10;;;;;;5488810;26;20454;-77
2024/04/12 13:01:34;;;;;;;7.35;5.13;;;15.70;90.10;;;;;;5517072;26;19998;-78
2024/04/12 13:04:07;;;;;;;6.90;4.53;;;15.80;90.20;;;;;;5517571;26;20002;-78
2024/04/12 13:06:34;;;;;;;6.95;5.05;;;15.80;90.20;;;;;;5517454;26;20009;-78
2024/04/12 13:09:00;;;;;;;7.40;5.05;;;15.80;90.20;;;;;;5517443;26;20050;-78
2024/04/12 13:11:25;;;;;;;7.20;5.07;;;15.80;90.20;;;;;;5487762;26;20002;-76
2024/04/12 13:13:51;;;;;;;6.93;4.72;;;15.90;90.20;;;;;;5517063;26;20342;-78
2024/04/12 13:16:18;;;;;;;7.15;4.80;;;15.90;90.20;;;;;;5517086;26;20451;-78
2024/04/12 13:18:51;;;;;;;7.30;4.82;;;15.90;90.10;;;;;;5488105;26;20005;-77
2024/04/12 13:21:18;;;;;;;6.75;4.45;;;15.90;90.10;;;;;;5488319;26;19998;-77
2024/04/12 13:23:46;;;;;;;6.72;4.88;;;15.90;90.00;;;;;;5516803;26;20064;-78
2024/04/12 13:26:22;;;;;;;6.32;4.60;;;15.90;90.00;;;;;;5487748;26;20066;-77
2024/04/12 13:28:52;;;;;;;7.30;4.97;;;15.90;90.00;;;;;;5488205;26;20003;-78
2024/04/12 13:31:29;;;;;;;6.70;4.90;;;15.90;89.90;;;;;;5516574;26;20598;-77
2024/04/12 13:33:55;;;;;;;6.85;4.80;;;15.90;90.00;;;;;;5516543;26;19994;-76
2024/04/12 13:36:21;;;;;;;7.55;5.25;;;16.00;90.00;;;;;;5487651;26;20006;-77
2024/04/12 13:38:48;;;;;;;6.85;5.05;;;16.00;90.00;;;;;;5516722;26;20038;-78
2024/04/12 13:41:15;;;;;;;6.95;4.95;;;15.90;89.90;;;;;;5487338;26;20026;-78
2024/04/12 13:43:45;;;;;;;6.75;4.75;;;15.90;89.90;;;;;;5490748;26;20013;-77
2024/04/12 13:51:49;;;;;;;6.60;4.57;;;16.00;89.90;;;;;;5491191;26;20043;-77
2024/04/12 13:54:20;;;;;;;6.60;4.65;;;15.90;89.90;;;;;;5520430;26;20002;-78
2024/04/12 13:56:49;;;;;;;6.93;4.85;;;16.00;90.00;;;;;;5491856;26;19998;-77
2024/04/12 13:59:15;;;;;;;6.75;4.53;;;16.00;90.00;;;;;;5520187;26;20009;-78
2024/04/12 14:01:40;;;;;;;6.38;4.50;;;16.00;90.00;;;;;;5491202;26;20002;-78
2024/04/12 14:04:09;;;;;;;6.72;4.70;;;16.00;90.00;;;;;;5520236;26;20396;-78
2024/04/12 14:06:38;;;;;;;7.07;4.93;;;15.90;90.00;;;;;;5490953;26;20006;-78
2024/04/12 14:09:12;;;;;;;7.13;5.22;;;16.00;90.00;;;;;;5491267;26;19994;-78
2024/04/12 14:11:38;;;;;;;6.60;4.75;;;16.00;90.00;;;;;;5491156;26;19994;-78
2024/04/12 14:14:04;;;;;;;7.88;5.05;;;16.00;90.00;;;;;;5520086;26;19990;-76
2024/04/12 14:16:33;;;;;;;6.65;4.68;;;15.90;90.00;;;;;;5491244;26;20331;-79
2024/04/12 14:18:59;;;;;;;6.63;4.70;;;15.90;90.00;;;;;;5520045;26;20380;-78
2024/04/12 14:21:28;;;;;;;6.68;4.45;;;15.90;90.00;;;;;;5519796;26;19991;-78